Terminal Aerodrome Forecast
Issued by NWS Grand Forks, ND

Home | Current Version | Previous Version | Graphics & Text | Print | Product List | Glossary On
Versions: 1 2 3 4 5 6 7 8 9 10 11 12 13 14 15 16 17 18
000
FTUS43 KFGF 050520
TAFGFK
TAF
KGFK 050520Z 0506/0606 16010KT P6SM BKN150
      TEMPO 0506/0508 5SM -TSRA BKN040CB
     FM051500 20010KT P6SM BKN025
     FM051800 28010KT P6SM VCTS BKN040CB
     FM052100 36010KT P6SM BKN080=

USA.gov is the U.S. government's official web portal to all federal, state and local government web resources and services.